sensor_id;sensor_type;location;lat;lon;timestamp;P1;durP1;ratioP1;P2;durP2;ratioP2
34060;SDS011;20336;-33.424;-70.638;2022-07-17T00:00:25;13.87;;;8.53;;
34060;SDS011;20336;-33.424;-70.638;2022-07-17T00:02:52;17.50;;;9.23;;
34060;SDS011;20336;-33.424;-70.638;2022-07-17T00:05:19;14.67;;;8.93;;
34060;SDS011;20336;-33.424;-70.638;2022-07-17T00:07:45;17.37;;;9.27;;
34060;SDS011;20336;-33.424;-70.638;2022-07-17T00:10:14;15.93;;;8.77;;
34060;SDS011;20336;-33.424;-70.638;2022-07-17T00:12:42;15.03;;;8.70;;
34060;SDS011;20336;-33.424;-70.638;2022-07-17T00:15:10;14.10;;;8.90;;
34060;SDS011;20336;-33.424;-70.638;2022-07-17T00:17:37;15.30;;;9.60;;
34060;SDS011;20336;-33.424;-70.638;2022-07-17T00:20:04;19.67;;;11.20;;
34060;SDS011;20336;-33.424;-70.638;2022-07-17T00:22:31;13.93;;;8.77;;
34060;SDS011;20336;-33.424;-70.638;2022-07-17T00:24:59;17.20;;;10.63;;
34060;SDS011;20336;-33.424;-70.638;2022-07-17T00:27:26;17.50;;;10.17;;
34060;SDS011;20336;-33.424;-70.638;2022-07-17T00:29:53;17.83;;;10.27;;
34060;SDS011;20336;-33.424;-70.638;2022-07-17T00:32:20;16.83;;;9.97;;
34060;SDS011;20336;-33.424;-70.638;2022-07-17T00:34:49;14.07;;;9.73;;
34060;SDS011;20336;-33.424;-70.638;2022-07-17T00:37:16;13.87;;;9.10;;
34060;SDS011;20336;-33.424;-70.638;2022-07-17T00:39:43;11.70;;;7.90;;
34060;SDS011;20336;-33.424;-70.638;2022-07-17T00:42:11;11.90;;;7.63;;
34060;SDS011;20336;-33.424;-70.638;2022-07-17T00:44:38;10.90;;;7.53;;
34060;SDS011;20336;-33.424;-70.638;2022-07-17T00:47:16;11.23;;;6.73;;
34060;SDS011;20336;-33.424;-70.638;2022-07-17T00:49:43;9.77;;;6.23;;
34060;SDS011;20336;-33.424;-70.638;2022-07-17T00:52:11;9.97;;;5.73;;
34060;SDS011;20336;-33.424;-70.638;2022-07-17T00:54:38;9.03;;;5.73;;
34060;SDS011;20336;-33.424;-70.638;2022-07-17T00:57:06;10.83;;;5.93;;
34060;SDS011;20336;-33.424;-70.638;2022-07-17T00:59:33;9.20;;;5.70;;
34060;SDS011;20336;-33.424;-70.638;2022-07-17T01:02:07;7.83;;;4.90;;
34060;SDS011;20336;-33.424;-70.638;2022-07-17T01:04:35;9.33;;;5.00;;
34060;SDS011;20336;-33.424;-70.638;2022-07-17T01:07:02;7.33;;;4.53;;
34060;SDS011;20336;-33.424;-70.638;2022-07-17T01:09:30;10.03;;;4.90;;
34060;SDS011;20336;-33.424;-70.638;2022-07-17T01:11:57;7.57;;;4.50;;
34060;SDS011;20336;-33.424;-70.638;2022-07-17T01:14:24;6.37;;;4.50;;
34060;SDS011;20336;-33.424;-70.638;2022-07-17T01:16:52;7.17;;;4.13;;
34060;SDS011;20336;-33.424;-70.638;2022-07-17T01:19:19;8.73;;;5.60;;
34060;SDS011;20336;-33.424;-70.638;2022-07-17T01:21:47;6.67;;;5.00;;
34060;SDS011;20336;-33.424;-70.638;2022-07-17T01:24:14;8.60;;;4.93;;
34060;SDS011;20336;-33.424;-70.638;2022-07-17T01:26:44;11.47;;;5.33;;
34060;SDS011;20336;-33.424;-70.638;2022-07-17T01:29:12;10.73;;;5.40;;
34060;SDS011;20336;-33.424;-70.638;2022-07-17T01:31:39;11.87;;;4.80;;
34060;SDS011;20336;-33.424;-70.638;2022-07-17T01:34:07;9.53;;;5.40;;
34060;SDS011;20336;-33.424;-70.638;2022-07-17T01:36:34;11.43;;;5.40;;
34060;SDS011;20336;-33.424;-70.638;2022-07-17T01:39:01;9.37;;;5.27;;
34060;SDS011;20336;-33.424;-70.638;2022-07-17T01:41:28;8.73;;;4.73;;
34060;SDS011;20336;-33.424;-70.638;2022-07-17T01:43:55;8.30;;;4.60;;
34060;SDS011;20336;-33.424;-70.638;2022-07-17T01:46:22;8.17;;;4.27;;
34060;SDS011;20336;-33.424;-70.638;2022-07-17T01:48:49;5.33;;;3.67;;
34060;SDS011;20336;-33.424;-70.638;2022-07-17T01:51:16;5.63;;;3.83;;
34060;SDS011;20336;-33.424;-70.638;2022-07-17T01:53:43;7.20;;;3.33;;
34060;SDS011;20336;-33.424;-70.638;2022-07-17T01:56:10;4.40;;;2.70;;
34060;SDS011;20336;-33.424;-70.638;2022-07-17T01:58:36;5.67;;;3.30;;
34060;SDS011;20336;-33.424;-70.638;2022-07-17T02:01:04;4.17;;;3.10;;
34060;SDS011;20336;-33.424;-70.638;2022-07-17T02:03:31;4.30;;;3.07;;
34060;SDS011;20336;-33.424;-70.638;2022-07-17T02:05:58;5.33;;;3.20;;
34060;SDS011;20336;-33.424;-70.638;2022-07-17T02:08:25;6.47;;;3.70;;
34060;SDS011;20336;-33.424;-70.638;2022-07-17T02:10:51;5.23;;;3.57;;
34060;SDS011;20336;-33.424;-70.638;2022-07-17T02:13:18;5.43;;;3.33;;
34060;SDS011;20336;-33.424;-70.638;2022-07-17T02:15:45;5.80;;;3.53;;
34060;SDS011;20336;-33.424;-70.638;2022-07-17T02:18:12;5.13;;;3.63;;
34060;SDS011;20336;-33.424;-70.638;2022-07-17T02:20:39;6.70;;;3.17;;
34060;SDS011;20336;-33.424;-70.638;2022-07-17T02:23:07;6.73;;;3.80;;
34060;SDS011;20336;-33.424;-70.638;2022-07-17T02:25:33;5.87;;;4.03;;
34060;SDS011;20336;-33.424;-70.638;2022-07-17T02:28:00;6.30;;;4.33;;
34060;SDS011;20336;-33.424;-70.638;2022-07-17T02:30:27;8.40;;;4.77;;
34060;SDS011;20336;-33.424;-70.638;2022-07-17T02:32:54;8.43;;;4.60;;
34060;SDS011;20336;-33.424;-70.638;2022-07-17T02:35:21;7.93;;;4.90;;
34060;SDS011;20336;-33.424;-70.638;2022-07-17T02:37:48;17.13;;;8.53;;
34060;SDS011;20336;-33.424;-70.638;2022-07-17T02:40:14;11.97;;;7.20;;
34060;SDS011;20336;-33.424;-70.638;2022-07-17T02:42:41;10.30;;;6.23;;
34060;SDS011;20336;-33.424;-70.638;2022-07-17T02:45:08;11.23;;;7.47;;
34060;SDS011;20336;-33.424;-70.638;2022-07-17T02:47:36;12.70;;;7.17;;
34060;SDS011;20336;-33.424;-70.638;2022-07-17T02:50:05;12.17;;;6.33;;
34060;SDS011;20336;-33.424;-70.638;2022-07-17T02:52:32;12.40;;;7.00;;
34060;SDS011;20336;-33.424;-70.638;2022-07-17T02:54:59;8.27;;;5.60;;
34060;SDS011;20336;-33.424;-70.638;2022-07-17T02:57:26;8.83;;;6.30;;
34060;SDS011;20336;-33.424;-70.638;2022-07-17T02:59:53;10.07;;;6.37;;
34060;SDS011;20336;-33.424;-70.638;2022-07-17T03:02:20;12.27;;;6.60;;
34060;SDS011;20336;-33.424;-70.638;2022-07-17T03:04:47;9.30;;;6.47;;
34060;SDS011;20336;-33.424;-70.638;2022-07-17T03:07:14;10.33;;;6.83;;
34060;SDS011;20336;-33.424;-70.638;2022-07-17T03:09:40;12.80;;;7.30;;
34060;SDS011;20336;-33.424;-70.638;2022-07-17T03:12:07;10.90;;;7.90;;
34060;SDS011;20336;-33.424;-70.638;2022-07-17T03:14:34;11.83;;;7.73;;
34060;SDS011;20336;-33.424;-70.638;2022-07-17T03:17:01;13.87;;;9.03;;
34060;SDS011;20336;-33.424;-70.638;2022-07-17T03:19:28;14.63;;;9.60;;
34060;SDS011;20336;-33.424;-70.638;2022-07-17T03:21:55;15.60;;;9.87;;
34060;SDS011;20336;-33.424;-70.638;2022-07-17T03:24:22;18.43;;;10.30;;
34060;SDS011;20336;-33.424;-70.638;2022-07-17T03:26:48;17.27;;;10.53;;
34060;SDS011;20336;-33.424;-70.638;2022-07-17T03:29:15;18.83;;;10.87;;
34060;SDS011;20336;-33.424;-70.638;2022-07-17T03:31:46;15.70;;;10.53;;
34060;SDS011;20336;-33.424;-70.638;2022-07-17T03:34:13;16.30;;;10.17;;
34060;SDS011;20336;-33.424;-70.638;2022-07-17T03:36:40;25.63;;;12.07;;
34060;SDS011;20336;-33.424;-70.638;2022-07-17T03:39:07;18.10;;;10.40;;
34060;SDS011;20336;-33.424;-70.638;2022-07-17T03:41:34;17.20;;;11.27;;
34060;SDS011;20336;-33.424;-70.638;2022-07-17T03:44:01;14.70;;;10.33;;
34060;SDS011;20336;-33.424;-70.638;2022-07-17T03:46:28;19.90;;;10.80;;
34060;SDS011;20336;-33.424;-70.638;2022-07-17T03:48:55;15.23;;;10.17;;
34060;SDS011;20336;-33.424;-70.638;2022-07-17T03:51:21;15.67;;;10.10;;
34060;SDS011;20336;-33.424;-70.638;2022-07-17T03:53:48;17.77;;;10.80;;
34060;SDS011;20336;-33.424;-70.638;2022-07-17T03:56:15;12.83;;;9.20;;
34060;SDS011;20336;-33.424;-70.638;2022-07-17T03:58:42;14.03;;;9.00;;
34060;SDS011;20336;-33.424;-70.638;2022-07-17T04:01:09;14.90;;;7.50;;
34060;SDS011;20336;-33.424;-70.638;2022-07-17T04:03:36;11.53;;;6.73;;
34060;SDS011;20336;-33.424;-70.638;2022-07-17T04:06:03;7.60;;;5.27;;
34060;SDS011;20336;-33.424;-70.638;2022-07-17T04:08:30;5.57;;;4.43;;
34060;SDS011;20336;-33.424;-70.638;2022-07-17T04:10:57;6.27;;;4.60;;
34060;SDS011;20336;-33.424;-70.638;2022-07-17T04:13:24;8.40;;;4.73;;
34060;SDS011;20336;-33.424;-70.638;2022-07-17T04:15:51;8.57;;;4.87;;
34060;SDS011;20336;-33.424;-70.638;2022-07-17T04:18:22;7.77;;;5.30;;
34060;SDS011;20336;-33.424;-70.638;2022-07-17T04:20:50;11.77;;;6.87;;
34060;SDS011;20336;-33.424;-70.638;2022-07-17T04:23:17;20.53;;;10.27;;
34060;SDS011;20336;-33.424;-70.638;2022-07-17T04:25:45;12.50;;;7.93;;
34060;SDS011;20336;-33.424;-70.638;2022-07-17T04:28:16;11.67;;;8.47;;
34060;SDS011;20336;-33.424;-70.638;2022-07-17T04:30:43;14.40;;;7.70;;
34060;SDS011;20336;-33.424;-70.638;2022-07-17T04:33:09;10.90;;;7.47;;
34060;SDS011;20336;-33.424;-70.638;2022-07-17T04:35:36;13.07;;;7.90;;
34060;SDS011;20336;-33.424;-70.638;2022-07-17T04:38:04;11.60;;;7.10;;
34060;SDS011;20336;-33.424;-70.638;2022-07-17T04:40:32;11.43;;;7.07;;
34060;SDS011;20336;-33.424;-70.638;2022-07-17T04:42:59;13.73;;;8.00;;
34060;SDS011;20336;-33.424;-70.638;2022-07-17T04:45:26;17.03;;;9.13;;
34060;SDS011;20336;-33.424;-70.638;2022-07-17T04:47:52;13.77;;;8.80;;
34060;SDS011;20336;-33.424;-70.638;2022-07-17T04:50:20;12.37;;;7.70;;
34060;SDS011;20336;-33.424;-70.638;2022-07-17T04:52:47;11.93;;;7.40;;
34060;SDS011;20336;-33.424;-70.638;2022-07-17T04:55:14;11.10;;;7.27;;
34060;SDS011;20336;-33.424;-70.638;2022-07-17T04:57:41;11.37;;;7.37;;
34060;SDS011;20336;-33.424;-70.638;2022-07-17T05:00:09;12.63;;;7.97;;
34060;SDS011;20336;-33.424;-70.638;2022-07-17T05:02:36;14.43;;;8.67;;
34060;SDS011;20336;-33.424;-70.638;2022-07-17T05:05:03;12.33;;;8.50;;
34060;SDS011;20336;-33.424;-70.638;2022-07-17T05:07:30;11.00;;;7.97;;
34060;SDS011;20336;-33.424;-70.638;2022-07-17T05:09:57;17.23;;;8.53;;
34060;SDS011;20336;-33.424;-70.638;2022-07-17T05:12:24;7.70;;;6.20;;
34060;SDS011;20336;-33.424;-70.638;2022-07-17T05:14:51;12.30;;;7.27;;
34060;SDS011;20336;-33.424;-70.638;2022-07-17T05:17:18;16.97;;;9.10;;
34060;SDS011;20336;-33.424;-70.638;2022-07-17T05:19:44;18.60;;;9.17;;
34060;SDS011;20336;-33.424;-70.638;2022-07-17T05:22:11;19.33;;;11.97;;
34060;SDS011;20336;-33.424;-70.638;2022-07-17T05:24:38;23.97;;;13.10;;
34060;SDS011;20336;-33.424;-70.638;2022-07-17T05:27:05;23.67;;;13.50;;
34060;SDS011;20336;-33.424;-70.638;2022-07-17T05:29:32;23.20;;;13.33;;
34060;SDS011;20336;-33.424;-70.638;2022-07-17T05:31:59;25.90;;;14.07;;
34060;SDS011;20336;-33.424;-70.638;2022-07-17T05:34:25;24.00;;;13.60;;
34060;SDS011;20336;-33.424;-70.638;2022-07-17T05:36:52;23.20;;;13.00;;
34060;SDS011;20336;-33.424;-70.638;2022-07-17T05:39:19;22.60;;;13.17;;
34060;SDS011;20336;-33.424;-70.638;2022-07-17T05:41:46;23.17;;;14.07;;
34060;SDS011;20336;-33.424;-70.638;2022-07-17T05:44:13;23.47;;;13.97;;
34060;SDS011;20336;-33.424;-70.638;2022-07-17T05:46:39;25.33;;;14.13;;
34060;SDS011;20336;-33.424;-70.638;2022-07-17T05:49:06;26.20;;;14.50;;
34060;SDS011;20336;-33.424;-70.638;2022-07-17T05:51:33;24.87;;;14.30;;
34060;SDS011;20336;-33.424;-70.638;2022-07-17T05:54:00;21.00;;;13.13;;
34060;SDS011;20336;-33.424;-70.638;2022-07-17T05:56:27;19.87;;;12.67;;
34060;SDS011;20336;-33.424;-70.638;2022-07-17T05:58:54;25.50;;;13.70;;
34060;SDS011;20336;-33.424;-70.638;2022-07-17T06:01:21;21.80;;;12.37;;
34060;SDS011;20336;-33.424;-70.638;2022-07-17T06:03:47;18.40;;;11.30;;
34060;SDS011;20336;-33.424;-70.638;2022-07-17T06:06:14;21.10;;;13.17;;
34060;SDS011;20336;-33.424;-70.638;2022-07-17T06:08:41;19.60;;;12.07;;
34060;SDS011;20336;-33.424;-70.638;2022-07-17T06:11:08;18.43;;;11.33;;
34060;SDS011;20336;-33.424;-70.638;2022-07-17T06:13:35;18.93;;;11.03;;
34060;SDS011;20336;-33.424;-70.638;2022-07-17T06:16:02;17.33;;;10.93;;
34060;SDS011;20336;-33.424;-70.638;2022-07-17T06:18:29;20.73;;;11.77;;
34060;SDS011;20336;-33.424;-70.638;2022-07-17T06:20:55;20.50;;;11.70;;
34060;SDS011;20336;-33.424;-70.638;2022-07-17T06:23:22;20.20;;;12.13;;
34060;SDS011;20336;-33.424;-70.638;2022-07-17T06:25:49;22.87;;;12.20;;
34060;SDS011;20336;-33.424;-70.638;2022-07-17T06:28:16;18.70;;;11.10;;
34060;SDS011;20336;-33.424;-70.638;2022-07-17T06:30:43;18.60;;;12.00;;
34060;SDS011;20336;-33.424;-70.638;2022-07-17T06:33:10;18.17;;;11.00;;
34060;SDS011;20336;-33.424;-70.638;2022-07-17T06:35:37;16.23;;;10.53;;
34060;SDS011;20336;-33.424;-70.638;2022-07-17T06:38:04;15.63;;;10.47;;
34060;SDS011;20336;-33.424;-70.638;2022-07-17T06:40:30;18.27;;;10.53;;
34060;SDS011;20336;-33.424;-70.638;2022-07-17T06:42:57;22.40;;;11.30;;
34060;SDS011;20336;-33.424;-70.638;2022-07-17T06:45:24;17.10;;;9.90;;
34060;SDS011;20336;-33.424;-70.638;2022-07-17T06:47:51;16.43;;;10.10;;
34060;SDS011;20336;-33.424;-70.638;2022-07-17T06:50:18;15.70;;;9.03;;
34060;SDS011;20336;-33.424;-70.638;2022-07-17T06:52:45;13.80;;;8.93;;
34060;SDS011;20336;-33.424;-70.638;2022-07-17T06:55:12;13.53;;;8.90;;
34060;SDS011;20336;-33.424;-70.638;2022-07-17T06:57:38;12.27;;;8.57;;
34060;SDS011;20336;-33.424;-70.638;2022-07-17T07:00:06;15.30;;;9.37;;
34060;SDS011;20336;-33.424;-70.638;2022-07-17T07:02:34;16.57;;;10.10;;
34060;SDS011;20336;-33.424;-70.638;2022-07-17T07:05:01;20.37;;;10.53;;
34060;SDS011;20336;-33.424;-70.638;2022-07-17T07:07:28;16.83;;;9.10;;
34060;SDS011;20336;-33.424;-70.638;2022-07-17T07:09:55;16.33;;;9.03;;
34060;SDS011;20336;-33.424;-70.638;2022-07-17T07:12:22;14.57;;;8.40;;
34060;SDS011;20336;-33.424;-70.638;2022-07-17T07:14:48;13.83;;;8.90;;
34060;SDS011;20336;-33.424;-70.638;2022-07-17T07:17:15;14.00;;;8.80;;
34060;SDS011;20336;-33.424;-70.638;2022-07-17T07:19:42;14.90;;;8.53;;
34060;SDS011;20336;-33.424;-70.638;2022-07-17T07:22:09;14.40;;;8.30;;
34060;SDS011;20336;-33.424;-70.638;2022-07-17T07:24:36;14.57;;;7.93;;
34060;SDS011;20336;-33.424;-70.638;2022-07-17T07:27:03;13.40;;;7.63;;
34060;SDS011;20336;-33.424;-70.638;2022-07-17T07:29:30;10.37;;;7.63;;
34060;SDS011;20336;-33.424;-70.638;2022-07-17T07:31:56;12.27;;;7.80;;
34060;SDS011;20336;-33.424;-70.638;2022-07-17T07:34:23;15.47;;;7.60;;
34060;SDS011;20336;-33.424;-70.638;2022-07-17T07:36:50;14.13;;;8.67;;
34060;SDS011;20336;-33.424;-70.638;2022-07-17T07:39:17;13.13;;;8.37;;
34060;SDS011;20336;-33.424;-70.638;2022-07-17T07:41:44;12.10;;;8.20;;
34060;SDS011;20336;-33.424;-70.638;2022-07-17T07:44:11;13.83;;;8.30;;
34060;SDS011;20336;-33.424;-70.638;2022-07-17T07:46:38;16.90;;;9.17;;
34060;SDS011;20336;-33.424;-70.638;2022-07-17T07:49:05;11.97;;;8.03;;
34060;SDS011;20336;-33.424;-70.638;2022-07-17T07:51:32;11.27;;;7.83;;
34060;SDS011;20336;-33.424;-70.638;2022-07-17T07:53:58;11.90;;;8.20;;
34060;SDS011;20336;-33.424;-70.638;2022-07-17T07:56:25;12.90;;;8.23;;
34060;SDS011;20336;-33.424;-70.638;2022-07-17T07:58:52;13.20;;;8.27;;
34060;SDS011;20336;-33.424;-70.638;2022-07-17T08:01:19;13.33;;;9.03;;
34060;SDS011;20336;-33.424;-70.638;2022-07-17T08:03:46;15.40;;;8.50;;
34060;SDS011;20336;-33.424;-70.638;2022-07-17T08:06:13;13.40;;;8.67;;
34060;SDS011;20336;-33.424;-70.638;2022-07-17T08:08:40;14.20;;;8.47;;
34060;SDS011;20336;-33.424;-70.638;2022-07-17T08:11:07;11.67;;;8.10;;
34060;SDS011;20336;-33.424;-70.638;2022-07-17T08:13:34;11.60;;;7.80;;
34060;SDS011;20336;-33.424;-70.638;2022-07-17T08:16:01;20.30;;;9.10;;
34060;SDS011;20336;-33.424;-70.638;2022-07-17T08:18:27;13.53;;;8.97;;
34060;SDS011;20336;-33.424;-70.638;2022-07-17T08:20:54;14.07;;;8.43;;
34060;SDS011;20336;-33.424;-70.638;2022-07-17T08:23:21;13.80;;;8.53;;
34060;SDS011;20336;-33.424;-70.638;2022-07-17T08:25:48;14.77;;;9.30;;
34060;SDS011;20336;-33.424;-70.638;2022-07-17T08:28:15;15.43;;;9.27;;
34060;SDS011;20336;-33.424;-70.638;2022-07-17T08:30:42;16.23;;;9.90;;
34060;SDS011;20336;-33.424;-70.638;2022-07-17T08:33:08;14.80;;;9.27;;
34060;SDS011;20336;-33.424;-70.638;2022-07-17T08:35:36;17.03;;;9.80;;
34060;SDS011;20336;-33.424;-70.638;2022-07-17T08:38:03;14.03;;;9.33;;
34060;SDS011;20336;-33.424;-70.638;2022-07-17T08:40:31;14.33;;;8.63;;
34060;SDS011;20336;-33.424;-70.638;2022-07-17T08:42:59;13.50;;;9.03;;
34060;SDS011;20336;-33.424;-70.638;2022-07-17T08:45:26;15.93;;;9.30;;
34060;SDS011;20336;-33.424;-70.638;2022-07-17T08:47:54;13.23;;;9.07;;
34060;SDS011;20336;-33.424;-70.638;2022-07-17T08:50:26;12.83;;;8.53;;
34060;SDS011;20336;-33.424;-70.638;2022-07-17T08:52:54;13.43;;;8.77;;
34060;SDS011;20336;-33.424;-70.638;2022-07-17T08:55:21;17.03;;;9.73;;
34060;SDS011;20336;-33.424;-70.638;2022-07-17T08:57:48;16.90;;;9.57;;
34060;SDS011;20336;-33.424;-70.638;2022-07-17T09:00:16;15.50;;;10.03;;
34060;SDS011;20336;-33.424;-70.638;2022-07-17T09:03:00;13.97;;;9.60;;
34060;SDS011;20336;-33.424;-70.638;2022-07-17T09:05:29;15.47;;;9.73;;
34060;SDS011;20336;-33.424;-70.638;2022-07-17T09:07:57;14.30;;;10.10;;
34060;SDS011;20336;-33.424;-70.638;2022-07-17T09:10:33;15.67;;;9.90;;
34060;SDS011;20336;-33.424;-70.638;2022-07-17T09:13:12;17.73;;;10.37;;
34060;SDS011;20336;-33.424;-70.638;2022-07-17T09:15:39;18.00;;;10.10;;
34060;SDS011;20336;-33.424;-70.638;2022-07-17T09:18:06;22.43;;;9.87;;
34060;SDS011;20336;-33.424;-70.638;2022-07-17T09:20:33;17.07;;;8.73;;
34060;SDS011;20336;-33.424;-70.638;2022-07-17T09:23:00;13.37;;;8.57;;
34060;SDS011;20336;-33.424;-70.638;2022-07-17T09:25:34;13.67;;;8.30;;
34060;SDS011;20336;-33.424;-70.638;2022-07-17T09:28:02;14.40;;;8.90;;
34060;SDS011;20336;-33.424;-70.638;2022-07-17T09:30:29;12.93;;;8.70;;
34060;SDS011;20336;-33.424;-70.638;2022-07-17T09:32:57;13.33;;;8.77;;
34060;SDS011;20336;-33.424;-70.638;2022-07-17T09:35:24;10.97;;;7.93;;
34060;SDS011;20336;-33.424;-70.638;2022-07-17T09:37:51;11.90;;;8.13;;
34060;SDS011;20336;-33.424;-70.638;2022-07-17T09:40:19;13.53;;;8.60;;
34060;SDS011;20336;-33.424;-70.638;2022-07-17T09:43:04;12.60;;;8.10;;
34060;SDS011;20336;-33.424;-70.638;2022-07-17T09:45:33;13.17;;;8.13;;
34060;SDS011;20336;-33.424;-70.638;2022-07-17T09:48:00;13.37;;;8.80;;
34060;SDS011;20336;-33.424;-70.638;2022-07-17T09:50:27;13.87;;;8.30;;
34060;SDS011;20336;-33.424;-70.638;2022-07-17T09:52:56;14.03;;;8.73;;
34060;SDS011;20336;-33.424;-70.638;2022-07-17T09:55:27;12.00;;;8.27;;
34060;SDS011;20336;-33.424;-70.638;2022-07-17T09:57:54;15.30;;;8.87;;
34060;SDS011;20336;-33.424;-70.638;2022-07-17T10:00:22;12.67;;;8.30;;
34060;SDS011;20336;-33.424;-70.638;2022-07-17T10:02:49;15.13;;;9.40;;
34060;SDS011;20336;-33.424;-70.638;2022-07-17T10:05:16;14.87;;;8.43;;
34060;SDS011;20336;-33.424;-70.638;2022-07-17T10:07:43;14.37;;;8.50;;
34060;SDS011;20336;-33.424;-70.638;2022-07-17T10:10:14;13.47;;;8.40;;
34060;SDS011;20336;-33.424;-70.638;2022-07-17T10:12:45;13.60;;;8.03;;
34060;SDS011;20336;-33.424;-70.638;2022-07-17T10:15:12;13.23;;;8.27;;
34060;SDS011;20336;-33.424;-70.638;2022-07-17T10:17:39;17.80;;;9.43;;
34060;SDS011;20336;-33.424;-70.638;2022-07-17T10:20:06;12.80;;;7.63;;
34060;SDS011;20336;-33.424;-70.638;2022-07-17T10:22:46;10.67;;;6.83;;
34060;SDS011;20336;-33.424;-70.638;2022-07-17T10:25:14;10.13;;;6.33;;
34060;SDS011;20336;-33.424;-70.638;2022-07-17T10:27:48;10.80;;;6.83;;
34060;SDS011;20336;-33.424;-70.638;2022-07-17T10:30:19;13.77;;;6.87;;
34060;SDS011;20336;-33.424;-70.638;2022-07-17T10:32:57;10.97;;;6.83;;
34060;SDS011;20336;-33.424;-70.638;2022-07-17T10:35:25;10.67;;;7.10;;
34060;SDS011;20336;-33.424;-70.638;2022-07-17T10:37:52;12.40;;;7.27;;
34060;SDS011;20336;-33.424;-70.638;2022-07-17T10:40:23;14.93;;;8.07;;
34060;SDS011;20336;-33.424;-70.638;2022-07-17T10:42:52;11.53;;;8.23;;
34060;SDS011;20336;-33.424;-70.638;2022-07-17T10:45:20;11.57;;;8.17;;
34060;SDS011;20336;-33.424;-70.638;2022-07-17T10:47:48;12.93;;;8.43;;
34060;SDS011;20336;-33.424;-70.638;2022-07-17T10:50:16;10.40;;;7.70;;
34060;SDS011;20336;-33.424;-70.638;2022-07-17T10:52:44;13.07;;;7.73;;
34060;SDS011;20336;-33.424;-70.638;2022-07-17T10:55:21;12.07;;;7.60;;
34060;SDS011;20336;-33.424;-70.638;2022-07-17T10:57:48;14.10;;;8.27;;
34060;SDS011;20336;-33.424;-70.638;2022-07-17T11:00:16;13.60;;;8.47;;
34060;SDS011;20336;-33.424;-70.638;2022-07-17T11:02:43;14.20;;;9.50;;
34060;SDS011;20336;-33.424;-70.638;2022-07-17T11:05:11;16.40;;;10.23;;
34060;SDS011;20336;-33.424;-70.638;2022-07-17T11:07:54;15.57;;;10.13;;
34060;SDS011;20336;-33.424;-70.638;2022-07-17T11:10:25;15.77;;;9.90;;
34060;SDS011;20336;-33.424;-70.638;2022-07-17T11:13:09;13.73;;;9.23;;
34060;SDS011;20336;-33.424;-70.638;2022-07-17T11:15:44;14.37;;;9.33;;
34060;SDS011;20336;-33.424;-70.638;2022-07-17T11:18:18;13.93;;;9.00;;
34060;SDS011;20336;-33.424;-70.638;2022-07-17T11:20:49;15.03;;;9.60;;
34060;SDS011;20336;-33.424;-70.638;2022-07-17T11:23:16;17.00;;;9.40;;
34060;SDS011;20336;-33.424;-70.638;2022-07-17T11:25:53;14.83;;;8.83;;
34060;SDS011;20336;-33.424;-70.638;2022-07-17T11:28:39;15.63;;;9.63;;
34060;SDS011;20336;-33.424;-70.638;2022-07-17T11:33:54;15.07;;;8.93;;
34060;SDS011;20336;-33.424;-70.638;2022-07-17T11:36:22;14.53;;;9.23;;
34060;SDS011;20336;-33.424;-70.638;2022-07-17T11:38:49;17.20;;;10.33;;
34060;SDS011;20336;-33.424;-70.638;2022-07-17T11:41:16;15.60;;;8.93;;
34060;SDS011;20336;-33.424;-70.638;2022-07-17T11:43:44;13.10;;;8.27;;
34060;SDS011;20336;-33.424;-70.638;2022-07-17T11:46:12;16.17;;;9.17;;
34060;SDS011;20336;-33.424;-70.638;2022-07-17T11:48:42;16.83;;;8.97;;
34060;SDS011;20336;-33.424;-70.638;2022-07-17T11:51:10;12.27;;;7.33;;
34060;SDS011;20336;-33.424;-70.638;2022-07-17T11:53:37;10.73;;;6.70;;
34060;SDS011;20336;-33.424;-70.638;2022-07-17T11:56:04;9.97;;;6.40;;
34060;SDS011;20336;-33.424;-70.638;2022-07-17T11:58:42;10.53;;;6.00;;
34060;SDS011;20336;-33.424;-70.638;2022-07-17T12:01:09;12.37;;;7.73;;
34060;SDS011;20336;-33.424;-70.638;2022-07-17T12:03:36;11.30;;;6.97;;
34060;SDS011;20336;-33.424;-70.638;2022-07-17T12:06:03;11.00;;;6.90;;
34060;SDS011;20336;-33.424;-70.638;2022-07-17T12:08:30;11.87;;;6.77;;
34060;SDS011;20336;-33.424;-70.638;2022-07-17T12:11:01;11.93;;;7.67;;
34060;SDS011;20336;-33.424;-70.638;2022-07-17T12:13:38;13.00;;;7.20;;
34060;SDS011;20336;-33.424;-70.638;2022-07-17T12:16:17;16.43;;;7.73;;
34060;SDS011;20336;-33.424;-70.638;2022-07-17T12:18:53;12.30;;;7.73;;
34060;SDS011;20336;-33.424;-70.638;2022-07-17T12:21:21;14.87;;;8.33;;
34060;SDS011;20336;-33.424;-70.638;2022-07-17T12:23:55;17.97;;;8.70;;
34060;SDS011;20336;-33.424;-70.638;2022-07-17T12:26:23;15.87;;;9.13;;
34060;SDS011;20336;-33.424;-70.638;2022-07-17T12:28:50;15.73;;;9.73;;
34060;SDS011;20336;-33.424;-70.638;2022-07-17T12:31:17;17.80;;;9.53;;
34060;SDS011;20336;-33.424;-70.638;2022-07-17T12:33:45;16.40;;;9.73;;
34060;SDS011;20336;-33.424;-70.638;2022-07-17T12:36:13;22.07;;;12.37;;
34060;SDS011;20336;-33.424;-70.638;2022-07-17T12:38:40;23.57;;;12.83;;
34060;SDS011;20336;-33.424;-70.638;2022-07-17T12:41:07;23.17;;;13.83;;
34060;SDS011;20336;-33.424;-70.638;2022-07-17T12:43:35;23.63;;;12.20;;
34060;SDS011;20336;-33.424;-70.638;2022-07-17T12:46:02;21.23;;;13.47;;
34060;SDS011;20336;-33.424;-70.638;2022-07-17T12:48:28;25.97;;;13.03;;
34060;SDS011;20336;-33.424;-70.638;2022-07-17T12:50:55;22.80;;;12.43;;
34060;SDS011;20336;-33.424;-70.638;2022-07-17T12:53:22;22.53;;;11.70;;
34060;SDS011;20336;-33.424;-70.638;2022-07-17T12:55:49;24.80;;;12.83;;
34060;SDS011;20336;-33.424;-70.638;2022-07-17T12:58:16;23.27;;;12.33;;
34060;SDS011;20336;-33.424;-70.638;2022-07-17T13:00:43;20.57;;;11.97;;
34060;SDS011;20336;-33.424;-70.638;2022-07-17T13:03:10;22.17;;;12.07;;
34060;SDS011;20336;-33.424;-70.638;2022-07-17T13:05:37;26.20;;;12.10;;
34060;SDS011;20336;-33.424;-70.638;2022-07-17T13:08:04;25.20;;;12.47;;
34060;SDS011;20336;-33.424;-70.638;2022-07-17T13:10:33;21.97;;;11.80;;
34060;SDS011;20336;-33.424;-70.638;2022-07-17T13:13:01;23.40;;;12.33;;
34060;SDS011;20336;-33.424;-70.638;2022-07-17T13:15:29;17.93;;;12.73;;
34060;SDS011;20336;-33.424;-70.638;2022-07-17T13:17:56;20.83;;;11.90;;
34060;SDS011;20336;-33.424;-70.638;2022-07-17T13:20:23;18.03;;;11.27;;
34060;SDS011;20336;-33.424;-70.638;2022-07-17T13:22:50;17.10;;;11.57;;
34060;SDS011;20336;-33.424;-70.638;2022-07-17T13:25:17;20.20;;;11.57;;
34060;SDS011;20336;-33.424;-70.638;2022-07-17T13:27:44;23.07;;;13.43;;
34060;SDS011;20336;-33.424;-70.638;2022-07-17T13:30:11;23.57;;;12.87;;
34060;SDS011;20336;-33.424;-70.638;2022-07-17T13:32:38;24.40;;;11.97;;
34060;SDS011;20336;-33.424;-70.638;2022-07-17T13:35:05;17.90;;;12.07;;
34060;SDS011;20336;-33.424;-70.638;2022-07-17T13:37:32;19.97;;;12.20;;
34060;SDS011;20336;-33.424;-70.638;2022-07-17T13:39:59;24.17;;;13.47;;
34060;SDS011;20336;-33.424;-70.638;2022-07-17T13:42:26;26.57;;;13.87;;
34060;SDS011;20336;-33.424;-70.638;2022-07-17T13:44:53;26.73;;;14.43;;
34060;SDS011;20336;-33.424;-70.638;2022-07-17T13:47:19;23.50;;;13.27;;
34060;SDS011;20336;-33.424;-70.638;2022-07-17T13:49:46;26.23;;;14.57;;
34060;SDS011;20336;-33.424;-70.638;2022-07-17T13:52:13;20.73;;;12.60;;
34060;SDS011;20336;-33.424;-70.638;2022-07-17T13:54:40;21.17;;;13.43;;
34060;SDS011;20336;-33.424;-70.638;2022-07-17T13:57:07;22.20;;;12.97;;
34060;SDS011;20336;-33.424;-70.638;2022-07-17T13:59:34;24.67;;;12.63;;